This is the latest recevied weather packets stored in our database for station/object EFHK. If no packets are shown the sender has not sent any weather packets the latest 10 day(s).
| Time | Temp. | Humidity | Pressure | Rain* | Wind** | Luminosity | Snow |
|---|---|---|---|---|---|---|---|
| 1777668210 | 11.67° C | 54% | 1015 hPa | - | - | - | - |
| 1777667605 | 11.67° C | 54% | 1015 hPa | - | - | - | - |
| 1777667005 | 11.67° C | 54% | 1015 hPa | - | - | - | - |
| 1777666403 | 11.67° C | 46% | 1015 hPa | - | - | - | - |
| 1777665804 | 11.67° C | 46% | 1015 hPa | - | - | - | - |
| 1777665206 | 11.67° C | 46% | 1015 hPa | - | - | - | - |
| 1777664607 | 12.78° C | 43% | 1015 hPa | - | - | - | - |
| 1777664006 | 12.78° C | 43% | 1015 hPa | - | - | - | - |
| 1777663410 | 12.78° C | 43% | 1015 hPa | - | - | - | - |
| 1777662802 | 15° C | 38% | 1015 hPa | - | - | - | - |
| 1777662208 | 15° C | 38% | 1015 hPa | - | - | - | - |
| 1777661603 | 15° C | 38% | 1015 hPa | - | - | - | - |
| 1777661005 | 15° C | 44% | 1015 hPa | - | - | - | - |
| 1777660405 | 15° C | 44% | 1015 hPa | - | - | - | - |
| 1777659805 | 15° C | 44% | 1015 hPa | - | - | - | - |
| 1777659206 | 16.67° C | 42% | 1015 hPa | - | - | - | - |
| 1777658604 | 16.67° C | 42% | 1015 hPa | - | - | - | - |
| 1777658005 | 16.67° C | 42% | 1015 hPa | - | - | - | - |
| 1777657407 | 18.89° C | 37% | 1015 hPa | - | - | - | - |
| 1777656806 | 18.89° C | 37% | 1015 hPa | - | - | - | - |
| 1777656205 | 18.89° C | 37% | 1015 hPa | - | - | - | - |
| 1777655604 | 18.89° C | 37% | 1015 hPa | - | - | - | - |
| 1777655002 | 18.89° C | 37% | 1015 hPa | - | - | - | - |
| 1777654403 | 18.89° C | 37% | 1015 hPa | - | - | - | - |
| 1777653804 | 20.56° C | 22% | 1015 hPa | - | - | - | - |
* Rain since midnight (hover to see other rain measurements)
** Current wind speed in m/s (hover to see current wind gust speed)